createdAt,value
2023-01-07T00:08:02.114Z,12.59
2023-01-07T00:20:03.758Z,12.59
2023-01-07T00:32:02.114Z,12.60
2023-01-07T00:44:02.150Z,12.59
2023-01-07T00:56:02.199Z,12.59
2023-01-07T01:08:02.126Z,12.59
2023-01-07T01:20:02.106Z,12.59
2023-01-07T01:32:02.159Z,12.60
2023-01-07T01:44:02.103Z,12.59
2023-01-07T01:56:02.125Z,12.59
2023-01-07T02:08:02.111Z,12.59
2023-01-07T02:20:02.130Z,12.59
2023-01-07T02:32:02.138Z,12.59
2023-01-07T02:44:02.133Z,12.59
2023-01-07T02:56:02.124Z,12.59
2023-01-07T03:08:02.102Z,12.59
2023-01-07T03:20:02.137Z,12.60
2023-01-07T03:32:02.205Z,12.60
2023-01-07T03:44:02.103Z,12.60
2023-01-07T03:56:02.225Z,12.60
2023-01-07T04:08:02.110Z,12.60
2023-01-07T04:20:02.151Z,12.60
2023-01-07T04:32:02.120Z,12.60
2023-01-07T04:44:02.189Z,12.60
2023-01-07T04:56:02.100Z,12.60
2023-01-07T05:08:02.189Z,12.60
2023-01-07T05:20:02.115Z,12.60
2023-01-07T05:32:02.106Z,12.60
2023-01-07T05:44:02.109Z,12.60
2023-01-07T05:56:02.186Z,12.60
2023-01-07T06:08:02.110Z,12.60
2023-01-07T06:20:02.134Z,12.60
2023-01-07T06:32:02.111Z,12.60
2023-01-07T06:44:02.110Z,12.60
2023-01-07T06:56:02.210Z,12.60
2023-01-07T07:08:02.112Z,12.60
2023-01-07T07:20:02.109Z,12.55
2023-01-07T07:32:02.176Z,12.51
2023-01-07T07:44:02.125Z,12.47
2023-01-07T07:56:02.107Z,12.46
2023-01-07T08:08:02.114Z,12.44
2023-01-07T08:20:02.110Z,12.41
2023-01-07T08:32:02.104Z,12.38
2023-01-07T08:44:02.113Z,12.36
2023-01-07T08:56:02.135Z,12.34
2023-01-07T09:08:02.102Z,12.33
2023-01-07T09:20:02.114Z,12.29
2023-01-07T09:32:02.106Z,12.28
2023-01-07T09:44:02.114Z,12.27
2023-01-07T09:56:10.666Z,12.25
2023-01-07T10:08:30.438Z,12.24
2023-01-07T10:20:02.151Z,12.20
2023-01-07T10:32:02.271Z,12.20
2023-01-07T10:44:02.142Z,12.18
2023-01-07T10:56:02.198Z,12.17
2023-01-07T11:08:02.110Z,12.14
2023-01-07T11:20:02.134Z,12.13
2023-01-07T11:32:02.183Z,12.12
2023-01-07T11:44:02.111Z,12.10
2023-01-07T11:56:02.173Z,12.07
2023-01-07T12:08:02.177Z,12.07
2023-01-07T12:20:02.100Z,12.04
2023-01-07T12:32:02.185Z,12.04
2023-01-07T12:44:02.102Z,12.02
2023-01-07T12:56:02.111Z,12.00
2023-01-07T13:08:04.328Z,11.98
2023-01-07T13:20:04.731Z,11.96
2023-01-07T13:32:02.111Z,11.96
2023-01-07T13:44:02.135Z,11.93
2023-01-07T13:56:02.101Z,11.91
2023-01-07T14:08:02.111Z,11.91
2023-01-07T14:20:02.154Z,11.89
2023-01-07T14:32:02.100Z,11.87
2023-01-07T14:44:02.148Z,11.85
2023-01-07T14:56:02.146Z,11.84
2023-01-07T15:08:02.104Z,11.83
2023-01-07T15:20:02.109Z,11.82
2023-01-07T15:32:02.187Z,11.80
2023-01-07T15:44:02.132Z,11.77
2023-01-07T15:56:02.122Z,11.77
2023-01-07T16:08:02.208Z,11.75
2023-01-07T16:20:02.220Z,11.74
2023-01-07T16:32:02.106Z,11.73
2023-01-07T16:44:02.122Z,11.70
2023-01-07T16:56:02.114Z,11.69
2023-01-07T17:08:02.116Z,11.68
2023-01-07T17:20:02.137Z,11.67
2023-01-07T17:32:02.105Z,11.65
2023-01-07T17:44:02.113Z,11.63
2023-01-07T17:56:02.108Z,11.61
2023-01-07T18:08:02.160Z,11.61
2023-01-07T18:20:02.175Z,11.60
2023-01-07T18:32:02.177Z,11.59
2023-01-07T18:44:02.126Z,11.57
2023-01-07T18:56:02.218Z,11.57
2023-01-07T19:08:02.121Z,11.56
2023-01-07T19:20:02.106Z,11.53
2023-01-07T19:32:02.284Z,11.53
2023-01-07T19:44:02.112Z,11.49
2023-01-07T19:56:02.122Z,11.48
2023-01-07T20:08:02.208Z,11.47
2023-01-07T20:20:02.185Z,11.45
2023-01-07T20:32:02.199Z,11.45
2023-01-07T20:44:02.142Z,11.45
2023-01-07T20:56:02.111Z,11.45
2023-01-07T21:08:02.100Z,11.45
2023-01-07T21:20:02.114Z,11.45
2023-01-07T21:32:02.255Z,11.45
2023-01-07T21:44:02.125Z,11.45
2023-01-07T21:56:02.100Z,11.45
2023-01-07T22:08:02.113Z,11.45
2023-01-07T22:20:02.124Z,11.45
2023-01-07T22:32:02.167Z,11.45
2023-01-07T22:44:02.205Z,11.45
2023-01-07T22:56:02.109Z,11.45
2023-01-07T23:08:02.107Z,11.45
2023-01-07T23:20:02.109Z,11.45
2023-01-07T23:32:02.157Z,11.45
2023-01-07T23:44:02.203Z,11.45
2023-01-07T23:56:02.128Z,11.45
